Terminal Aerodrome Forecast
Issued by NWS Wichita, KS

Home | Current Version | Previous Version | Graphics & Text | Print | Product List | Glossary On
Versions: 1 2 3 4 5 6 7 8 9 10 11 12 13 14 15 16 17
818
FTUS43 KICT 250520
TAFICT
TAF
KICT 250520Z 2506/2606 15009KT P6SM OVC200 WS015/18050KT
     FM251100 15009KT P6SM OVC200
     FM251400 18013KT P6SM OVC200
     FM252300 33013KT P6SM VCTS SCT035CB BKN080
     FM260000 36015G22KT P6SM VCTS OVC020CB=

USA.gov is the U.S. government's official web portal to all federal, state and local government web resources and services.